createdAt,value
2023-04-27T00:00:33.000Z,0
2023-04-27T00:01:49.000Z,0
2023-04-27T00:03:05.000Z,0
2023-04-27T00:04:21.000Z,0
2023-04-27T00:05:38.000Z,0
2023-04-27T00:06:54.477Z,0
2023-04-27T00:08:10.796Z,0
2023-04-27T00:09:27.000Z,0
2023-04-27T00:10:43.000Z,0
2023-04-27T00:11:59.000Z,0
2023-04-27T00:13:14.000Z,0
2023-04-27T00:14:31.000Z,0
2023-04-27T00:15:47.000Z,0
2023-04-27T00:17:03.000Z,0
2023-04-27T00:18:20.165Z,0
2023-04-27T00:19:36.000Z,0
2023-04-27T00:20:52.000Z,0
2023-04-27T00:22:09.000Z,0
2023-04-27T00:23:25.000Z,0
2023-04-27T00:24:41.000Z,0
2023-04-27T00:25:57.000Z,0
2023-04-27T00:27:14.000Z,0
2023-04-27T00:28:30.000Z,0
2023-04-27T00:29:45.000Z,0
2023-04-27T00:31:02.000Z,0
2023-04-27T00:32:18.000Z,0
2023-04-27T00:33:33.700Z,0
2023-04-27T00:34:50.000Z,0
2023-04-27T00:36:06.000Z,0
2023-04-27T00:37:22.000Z,0
2023-04-27T00:38:38.000Z,0
2023-04-27T00:39:55.000Z,0
2023-04-27T00:41:11.000Z,0
2023-04-27T00:42:27.000Z,0
2023-04-27T00:43:44.000Z,0
2023-04-27T00:45:00.000Z,0
2023-04-27T00:46:16.000Z,0
2023-04-27T00:47:32.000Z,0
2023-04-27T00:48:49.000Z,0
2023-04-27T00:50:04.000Z,0
2023-04-27T00:51:20.000Z,0
2023-04-27T00:52:37.000Z,0
2023-04-27T00:53:53.000Z,0
2023-04-27T00:55:09.000Z,0
2023-04-27T00:56:26.000Z,0
2023-04-27T00:57:42.000Z,0
2023-04-27T00:58:58.614Z,0
2023-04-27T01:00:14.000Z,0
2023-04-27T01:01:31.214Z,0
2023-04-27T01:02:47.000Z,0
2023-04-27T01:04:03.796Z,0
2023-04-27T01:05:20.000Z,0
2023-04-27T01:06:35.000Z,0
2023-04-27T01:07:51.697Z,0
2023-04-27T01:09:08.000Z,0
2023-04-27T01:10:24.293Z,0
2023-04-27T01:11:40.575Z,0
2023-04-27T01:12:56.000Z,0
2023-04-27T01:14:13.000Z,0
2023-04-27T01:15:29.000Z,0
2023-04-27T01:16:45.723Z,0
2023-04-27T01:18:02.000Z,0
2023-04-27T01:19:18.000Z,0
2023-04-27T01:20:34.000Z,0
2023-04-27T01:21:50.000Z,0
2023-04-27T01:23:06.000Z,0
2023-04-27T01:24:22.538Z,0
2023-04-27T01:25:38.000Z,0
2023-04-27T01:26:55.000Z,0
2023-04-27T01:28:11.000Z,0
2023-04-27T01:29:27.000Z,0
2023-04-27T01:30:43.978Z,0
2023-04-27T01:32:00.000Z,0
2023-04-27T01:33:16.000Z,0
2023-04-27T01:34:32.000Z,0
2023-04-27T01:35:49.000Z,0
2023-04-27T01:37:05.000Z,0
2023-04-27T01:38:21.000Z,0
2023-04-27T01:39:37.000Z,0
2023-04-27T01:40:53.000Z,0
2023-04-27T01:42:09.000Z,0
2023-04-27T01:43:25.000Z,0
2023-04-27T01:44:42.000Z,0
2023-04-27T01:45:58.000Z,0
2023-04-27T01:47:14.000Z,0
2023-04-27T01:48:31.000Z,0
2023-04-27T01:49:47.000Z,0
2023-04-27T01:51:03.000Z,0
2023-04-27T01:52:20.000Z,0
2023-04-27T01:53:36.000Z,0
2023-04-27T01:54:52.000Z,0
2023-04-27T01:56:07.000Z,0
2023-04-27T01:57:24.000Z,0
2023-04-27T01:58:40.000Z,0
2023-04-27T01:59:56.000Z,0
2023-04-27T02:01:13.000Z,0
2023-04-27T02:02:29.394Z,0
2023-04-27T02:03:45.000Z,0
2023-04-27T02:05:01.973Z,0
2023-04-27T02:06:18.258Z,0
2023-04-27T02:07:34.000Z,0
2023-04-27T02:08:50.000Z,0
2023-04-27T02:10:07.000Z,0
2023-04-27T02:11:23.000Z,0
2023-04-27T02:12:38.000Z,0
2023-04-27T02:13:55.000Z,0
2023-04-27T02:15:11.000Z,0
2023-04-27T02:16:27.000Z,0
2023-04-27T02:17:43.920Z,0
2023-04-27T02:19:00.000Z,0
2023-04-27T02:20:16.000Z,0
2023-04-27T02:21:32.000Z,0
2023-04-27T02:22:49.000Z,0
2023-04-27T02:24:05.000Z,0
2023-04-27T02:25:21.677Z,0
2023-04-27T02:26:38.000Z,0
2023-04-27T02:27:54.255Z,0
2023-04-27T02:29:09.000Z,0
2023-04-27T02:30:25.000Z,0
2023-04-27T02:31:42.000Z,0
2023-04-27T02:32:58.000Z,0
2023-04-27T02:34:14.000Z,0
2023-04-27T02:35:31.000Z,0
2023-04-27T02:36:47.000Z,0
2023-04-27T02:38:03.000Z,0
2023-04-27T02:39:19.000Z,0
2023-04-27T02:40:36.211Z,0
2023-04-27T02:41:52.000Z,0
2023-04-27T02:43:08.000Z,0
2023-04-27T02:44:25.000Z,0
2023-04-27T02:45:41.000Z,0
2023-04-27T02:46:56.000Z,0
2023-04-27T02:48:13.000Z,0
2023-04-27T02:49:29.000Z,0
2023-04-27T02:50:45.000Z,0
2023-04-27T02:52:01.000Z,0
2023-04-27T02:53:18.000Z,0
2023-04-27T02:54:34.000Z,0
2023-04-27T02:55:50.762Z,0
2023-04-27T02:57:07.000Z,0
2023-04-27T02:58:23.341Z,0
2023-04-27T02:59:39.000Z,0
2023-04-27T03:00:55.000Z,0
2023-04-27T03:02:12.000Z,0
2023-04-27T03:03:28.000Z,0
2023-04-27T03:04:43.000Z,0
2023-04-27T03:06:00.000Z,0
2023-04-27T03:07:16.000Z,0
2023-04-27T03:08:32.000Z,0
2023-04-27T03:09:49.000Z,0
2023-04-27T03:11:05.307Z,0
2023-04-27T03:12:21.000Z,0
2023-04-27T03:13:37.000Z,0
2023-04-27T03:14:54.000Z,0
2023-04-27T03:16:10.000Z,0
2023-04-27T03:17:26.000Z,0
2023-04-27T03:18:42.000Z,0
2023-04-27T03:19:59.000Z,0
2023-04-27T03:21:15.298Z,0
2023-04-27T03:22:30.000Z,0
2023-04-27T03:23:46.000Z,0
2023-04-27T03:25:03.041Z,0
2023-04-27T03:26:19.000Z,0
2023-04-27T03:27:35.528Z,0
2023-04-27T03:28:51.000Z,0
2023-04-27T03:30:08.000Z,0
2023-04-27T03:31:24.000Z,0
2023-04-27T03:32:40.000Z,0
2023-04-27T03:33:56.000Z,0
2023-04-27T03:35:12.000Z,0
2023-04-27T03:36:29.000Z,0
2023-04-27T03:37:45.000Z,0
2023-04-27T03:39:01.000Z,0
2023-04-27T03:40:16.000Z,0
2023-04-27T03:41:33.000Z,0
2023-04-27T03:42:49.000Z,0
2023-04-27T03:44:05.000Z,0
2023-04-27T03:45:21.000Z,5
2023-04-27T03:46:38.000Z,5
2023-04-27T03:47:54.000Z,5
2023-04-27T03:49:10.000Z,5
2023-04-27T03:50:26.000Z,5
2023-04-27T03:51:43.000Z,5
2023-04-27T03:52:59.000Z,5
2023-04-27T03:54:15.000Z,5
2023-04-27T03:55:31.000Z,11
2023-04-27T03:56:48.000Z,11
2023-04-27T03:58:03.000Z,11
2023-04-27T03:59:19.000Z,11
2023-04-27T04:00:35.000Z,16
2023-04-27T04:01:52.000Z,16
2023-04-27T04:03:08.000Z,16
2023-04-27T04:04:24.000Z,16
2023-04-27T04:05:40.000Z,22
2023-04-27T04:06:57.000Z,22
2023-04-27T04:08:13.000Z,22
2023-04-27T04:09:29.000Z,22
2023-04-27T04:10:45.000Z,22
2023-04-27T04:12:01.000Z,28
2023-04-27T04:13:18.000Z,28
2023-04-27T04:14:34.440Z,28
2023-04-27T04:15:49.000Z,33
2023-04-27T04:17:05.000Z,33
2023-04-27T04:18:22.000Z,33
2023-04-27T04:19:38.000Z,33
2023-04-27T04:20:54.000Z,33
2023-04-27T04:22:10.000Z,39
2023-04-27T04:23:27.000Z,39
2023-04-27T04:24:43.000Z,39
2023-04-27T04:25:59.000Z,45
2023-04-27T04:27:15.000Z,45
2023-04-27T04:28:32.000Z,39
2023-04-27T04:29:48.000Z,39
2023-04-27T04:31:04.000Z,39
2023-04-27T04:32:20.000Z,39
2023-04-27T04:33:36.000Z,39
2023-04-27T04:34:52.329Z,39
2023-04-27T04:36:08.000Z,45
2023-04-27T04:37:24.000Z,45
2023-04-27T04:38:41.000Z,50
2023-04-27T04:39:57.000Z,50
2023-04-27T04:41:13.000Z,50
2023-04-27T04:42:29.000Z,56
2023-04-27T04:43:46.000Z,56
2023-04-27T04:45:02.000Z,61
2023-04-27T04:46:18.000Z,61
2023-04-27T04:47:34.000Z,67
2023-04-27T04:48:50.000Z,67
2023-04-27T04:50:06.227Z,67
2023-04-27T04:51:22.000Z,73
2023-04-27T04:52:38.000Z,73
2023-04-27T04:53:54.000Z,73
2023-04-27T04:55:11.180Z,84
2023-04-27T04:56:27.000Z,84
2023-04-27T04:57:43.000Z,84
2023-04-27T04:58:59.000Z,90
2023-04-27T05:00:16.140Z,95
2023-04-27T05:01:32.000Z,101
2023-04-27T05:02:48.000Z,106
2023-04-27T05:04:04.000Z,112
2023-04-27T05:05:20.000Z,112
2023-04-27T05:06:36.000Z,118
2023-04-27T05:07:52.000Z,118
2023-04-27T05:09:08.000Z,118
2023-04-27T05:10:25.000Z,118
2023-04-27T05:11:41.000Z,118
2023-04-27T05:12:57.000Z,118
2023-04-27T05:14:13.000Z,118
2023-04-27T05:15:30.000Z,118
2023-04-27T05:16:46.000Z,112
2023-04-27T05:18:02.000Z,112
2023-04-27T05:19:18.000Z,112
2023-04-27T05:20:35.002Z,106
2023-04-27T05:21:50.000Z,106
2023-04-27T05:23:06.000Z,106
2023-04-27T05:24:22.000Z,101
2023-04-27T05:25:39.000Z,101
2023-04-27T05:26:55.000Z,101
2023-04-27T05:28:11.000Z,101
2023-04-27T05:29:27.000Z,101
2023-04-27T05:30:43.000Z,101
2023-04-27T05:32:00.000Z,101
2023-04-27T05:33:16.432Z,101
2023-04-27T05:34:32.654Z,106
2023-04-27T05:35:48.000Z,106
2023-04-27T05:37:05.000Z,112
2023-04-27T05:38:20.000Z,118
2023-04-27T05:39:36.000Z,123
2023-04-27T05:40:52.000Z,129
2023-04-27T05:42:09.000Z,129
2023-04-27T05:43:25.000Z,135
2023-04-27T05:44:41.000Z,140
2023-04-27T05:45:57.000Z,140
2023-04-27T05:47:14.000Z,140
2023-04-27T05:48:30.000Z,135
2023-04-27T05:49:46.000Z,135
2023-04-27T05:51:02.000Z,129
2023-04-27T05:52:19.000Z,129
2023-04-27T05:53:35.000Z,123
2023-04-27T05:54:50.000Z,123
2023-04-27T05:56:06.000Z,123
2023-04-27T05:57:23.000Z,129
2023-04-27T05:58:39.000Z,129
2023-04-27T05:59:55.000Z,135
2023-04-27T06:01:11.715Z,140
2023-04-27T06:02:27.000Z,146
2023-04-27T06:03:44.000Z,146
2023-04-27T06:05:00.000Z,157
2023-04-27T06:06:16.696Z,163
2023-04-27T06:07:32.000Z,163
2023-04-27T06:08:49.000Z,168
2023-04-27T06:10:05.000Z,180
2023-04-27T06:11:20.000Z,174
2023-04-27T06:12:36.000Z,168
2023-04-27T06:13:53.128Z,168
2023-04-27T06:15:09.000Z,163
2023-04-27T06:16:25.628Z,163
2023-04-27T06:17:41.000Z,163
2023-04-27T06:18:58.000Z,163
2023-04-27T06:20:14.000Z,157
2023-04-27T06:21:30.000Z,163
2023-04-27T06:22:46.000Z,163
2023-04-27T06:24:03.000Z,163
2023-04-27T06:25:19.000Z,163
2023-04-27T06:26:35.000Z,168
2023-04-27T06:27:50.000Z,168
2023-04-27T06:29:07.034Z,168
2023-04-27T06:30:23.000Z,168
2023-04-27T06:31:39.000Z,163
2023-04-27T06:32:55.000Z,168
2023-04-27T06:34:12.000Z,168
2023-04-27T06:35:28.000Z,163
2023-04-27T06:36:44.000Z,163
2023-04-27T06:38:00.000Z,163
2023-04-27T06:39:16.000Z,163
2023-04-27T06:40:33.000Z,163
2023-04-27T06:41:49.000Z,163
2023-04-27T06:43:05.000Z,168
2023-04-27T06:44:20.000Z,168
2023-04-27T06:45:37.000Z,174
2023-04-27T06:46:53.000Z,174
2023-04-27T06:48:09.000Z,174
2023-04-27T06:49:25.000Z,174
2023-04-27T06:50:42.000Z,180
2023-04-27T06:51:58.000Z,180
2023-04-27T06:53:14.000Z,180
2023-04-27T06:54:30.000Z,180
2023-04-27T06:55:47.000Z,180
2023-04-27T06:57:03.000Z,180
2023-04-27T06:58:19.000Z,180
2023-04-27T06:59:35.000Z,180
2023-04-27T07:00:51.000Z,185
2023-04-27T07:02:07.000Z,185
2023-04-27T07:03:23.000Z,191
2023-04-27T07:04:39.000Z,191
2023-04-27T07:05:56.000Z,191
2023-04-27T07:07:12.269Z,196
2023-04-27T07:08:28.000Z,202
2023-04-27T07:09:44.000Z,213
2023-04-27T07:11:01.000Z,230
2023-04-27T07:12:17.000Z,236
2023-04-27T07:13:33.000Z,241
2023-04-27T07:14:49.000Z,253
2023-04-27T07:16:05.000Z,258
2023-04-27T07:17:22.000Z,264
2023-04-27T07:18:37.000Z,258
2023-04-27T07:19:53.664Z,258
2023-04-27T07:21:09.000Z,258
2023-04-27T07:22:26.157Z,258
2023-04-27T07:23:42.000Z,264
2023-04-27T07:24:58.000Z,264
2023-04-27T07:26:14.000Z,264
2023-04-27T07:27:31.000Z,258
2023-04-27T07:28:47.000Z,264
2023-04-27T07:30:03.000Z,275
2023-04-27T07:31:19.000Z,286
2023-04-27T07:32:36.000Z,292
2023-04-27T07:33:52.000Z,286
2023-04-27T07:35:07.000Z,286
2023-04-27T07:36:23.000Z,286
2023-04-27T07:37:40.000Z,298
2023-04-27T07:38:56.000Z,298
2023-04-27T07:40:12.000Z,292
2023-04-27T07:41:28.000Z,292
2023-04-27T07:42:45.000Z,292
2023-04-27T07:44:01.000Z,292
2023-04-27T07:45:17.000Z,292
2023-04-27T07:46:33.000Z,292
2023-04-27T07:47:49.000Z,292
2023-04-27T07:49:06.000Z,292
2023-04-27T07:50:22.000Z,298
2023-04-27T07:51:37.000Z,303
2023-04-27T07:52:53.000Z,303
2023-04-27T07:54:10.000Z,303
2023-04-27T07:55:26.402Z,303
2023-04-27T07:56:42.000Z,315
2023-04-27T07:57:58.000Z,303
2023-04-27T07:59:15.000Z,303
2023-04-27T08:00:31.000Z,303
2023-04-27T08:01:47.000Z,309
2023-04-27T08:03:03.000Z,309
2023-04-27T08:04:20.000Z,315
2023-04-27T08:05:36.000Z,320
2023-04-27T08:06:52.000Z,320
2023-04-27T08:08:07.000Z,315
2023-04-27T08:09:24.000Z,315
2023-04-27T08:10:40.000Z,315
2023-04-27T08:11:56.000Z,309
2023-04-27T08:13:12.782Z,303
2023-04-27T08:14:29.000Z,298
2023-04-27T08:15:45.000Z,292
2023-04-27T08:17:01.000Z,292
2023-04-27T08:18:17.740Z,286
2023-04-27T08:19:34.000Z,286
2023-04-27T08:20:50.000Z,286
2023-04-27T08:22:06.000Z,292
2023-04-27T08:23:22.000Z,292
2023-04-27T08:24:37.000Z,286
2023-04-27T08:25:54.208Z,292
2023-04-27T08:27:10.000Z,292
2023-04-27T08:28:26.000Z,292
2023-04-27T08:29:42.000Z,292
2023-04-27T08:30:59.000Z,292
2023-04-27T08:32:15.000Z,298
2023-04-27T08:33:31.000Z,303
2023-04-27T08:34:47.000Z,309
2023-04-27T08:36:04.000Z,292
2023-04-27T08:37:20.344Z,286
2023-04-27T08:38:36.000Z,286
2023-04-27T08:39:52.830Z,275
2023-04-27T08:41:08.000Z,270
2023-04-27T08:42:24.000Z,264
2023-04-27T08:43:40.000Z,258
2023-04-27T08:44:56.000Z,264
2023-04-27T08:46:13.044Z,281
2023-04-27T08:47:29.000Z,275
2023-04-27T08:48:45.000Z,258
2023-04-27T08:50:01.000Z,247
2023-04-27T08:51:18.000Z,241
2023-04-27T08:52:34.000Z,241
2023-04-27T08:53:50.000Z,241
2023-04-27T08:55:06.000Z,247
2023-04-27T08:56:22.000Z,253
2023-04-27T08:57:38.000Z,253
2023-04-27T08:58:54.000Z,230
2023-04-27T09:00:10.000Z,241
2023-04-27T09:01:26.942Z,264
2023-04-27T09:02:43.000Z,275
2023-04-27T09:03:58.000Z,270
2023-04-27T09:05:14.000Z,264
2023-04-27T09:06:30.000Z,264
2023-04-27T09:07:47.000Z,258
2023-04-27T09:09:03.000Z,270
2023-04-27T09:10:19.000Z,270
2023-04-27T09:11:35.891Z,281
2023-04-27T09:12:52.000Z,292
2023-04-27T09:14:08.000Z,298
2023-04-27T09:15:24.000Z,303
2023-04-27T09:16:40.000Z,309
2023-04-27T09:17:57.000Z,315
2023-04-27T09:19:13.000Z,320
2023-04-27T09:20:28.000Z,309
2023-04-27T09:21:44.821Z,303
2023-04-27T09:23:01.000Z,320
2023-04-27T09:24:17.000Z,326
2023-04-27T09:25:33.000Z,343
2023-04-27T09:26:49.774Z,348
2023-04-27T09:28:06.000Z,343
2023-04-27T09:29:22.000Z,343
2023-04-27T09:30:38.000Z,315
2023-04-27T09:31:54.711Z,331
2023-04-27T09:33:11.000Z,348
2023-04-27T09:34:27.000Z,348
2023-04-27T09:35:43.444Z,354
2023-04-27T09:36:58.000Z,354
2023-04-27T09:38:14.000Z,354
2023-04-27T09:39:31.181Z,343
2023-04-27T09:40:47.000Z,315
2023-04-27T09:42:03.000Z,326
2023-04-27T09:43:19.000Z,309
2023-04-27T09:44:36.000Z,309
2023-04-27T09:45:52.000Z,315
2023-04-27T09:47:08.000Z,326
2023-04-27T09:48:24.852Z,360
2023-04-27T09:49:41.097Z,371
2023-04-27T09:50:57.000Z,354
2023-04-27T09:52:13.000Z,348
2023-04-27T09:53:28.000Z,348
2023-04-27T09:54:45.000Z,360
2023-04-27T09:56:01.000Z,348
2023-04-27T09:57:17.000Z,343
2023-04-27T09:58:33.000Z,343
2023-04-27T09:59:50.000Z,337
2023-04-27T10:01:06.000Z,337
2023-04-27T10:02:22.511Z,331
2023-04-27T10:03:38.000Z,331
2023-04-27T10:04:55.000Z,331
2023-04-27T10:06:11.000Z,326
2023-04-27T10:07:27.000Z,326
2023-04-27T10:08:43.000Z,326
2023-04-27T10:09:58.000Z,326
2023-04-27T10:11:15.000Z,331
2023-04-27T10:12:31.000Z,337
2023-04-27T10:13:47.000Z,331
2023-04-27T10:15:03.000Z,343
2023-04-27T10:16:20.000Z,354
2023-04-27T10:17:36.000Z,365
2023-04-27T10:18:52.000Z,382
2023-04-27T10:20:08.000Z,376
2023-04-27T10:21:25.000Z,376
2023-04-27T10:22:41.000Z,360
2023-04-27T10:23:57.000Z,348
2023-04-27T10:25:13.000Z,337
2023-04-27T10:26:29.000Z,320
2023-04-27T10:27:45.341Z,315
2023-04-27T10:29:01.000Z,309
2023-04-27T10:30:17.000Z,298
2023-04-27T10:31:34.000Z,286
2023-04-27T10:32:50.000Z,286
2023-04-27T10:34:06.000Z,286
2023-04-27T10:35:22.758Z,281
2023-04-27T10:36:39.000Z,270
2023-04-27T10:37:55.000Z,264
2023-04-27T10:39:11.484Z,264
2023-04-27T10:40:27.000Z,275
2023-04-27T10:41:43.000Z,286
2023-04-27T10:42:59.000Z,292
2023-04-27T10:44:15.000Z,298
2023-04-27T10:45:31.000Z,303
2023-04-27T10:46:47.000Z,309
2023-04-27T10:48:04.000Z,320
2023-04-27T10:49:20.000Z,331
2023-04-27T10:50:36.000Z,354
2023-04-27T10:51:52.000Z,376
2023-04-27T10:53:09.000Z,382
2023-04-27T10:54:25.000Z,382
2023-04-27T10:55:41.000Z,388
2023-04-27T10:56:57.000Z,382
2023-04-27T10:58:14.000Z,382
2023-04-27T10:59:29.000Z,376
2023-04-27T11:00:45.000Z,371
2023-04-27T11:02:01.000Z,348
2023-04-27T11:03:18.000Z,354
2023-04-27T11:04:34.000Z,326
2023-04-27T11:05:50.539Z,326
2023-04-27T11:07:06.000Z,315
2023-04-27T11:08:23.000Z,331
2023-04-27T11:09:39.000Z,331
2023-04-27T11:10:55.522Z,337
2023-04-27T11:12:11.000Z,320
2023-04-27T11:13:28.000Z,320
2023-04-27T11:14:44.000Z,320
2023-04-27T11:15:59.000Z,320
2023-04-27T11:17:15.000Z,320
2023-04-27T11:18:31.000Z,331
2023-04-27T11:19:48.000Z,331
2023-04-27T11:21:04.436Z,337
2023-04-27T11:22:20.000Z,343
2023-04-27T11:23:36.000Z,337
2023-04-27T11:24:53.000Z,331
2023-04-27T11:26:09.000Z,337
2023-04-27T11:27:25.000Z,348
2023-04-27T11:28:41.862Z,376
2023-04-27T11:29:58.000Z,388
2023-04-27T11:31:14.000Z,371
2023-04-27T11:32:29.000Z,360
2023-04-27T11:33:45.000Z,348
2023-04-27T11:35:02.000Z,326
2023-04-27T11:36:18.000Z,315
2023-04-27T11:37:34.000Z,298
2023-04-27T11:38:50.000Z,298
2023-04-27T11:40:07.000Z,315
2023-04-27T11:41:23.000Z,331
2023-04-27T11:42:39.000Z,354
2023-04-27T11:43:55.000Z,360
2023-04-27T11:45:12.000Z,371
2023-04-27T11:46:28.000Z,376
2023-04-27T11:47:44.000Z,388
2023-04-27T11:48:59.000Z,399
2023-04-27T11:50:15.000Z,405
2023-04-27T11:51:32.000Z,405
2023-04-27T11:52:48.000Z,405
2023-04-27T11:54:04.000Z,382
2023-04-27T11:55:20.000Z,360
2023-04-27T11:56:37.000Z,337
2023-04-27T11:57:53.000Z,337
2023-04-27T11:59:09.645Z,309
2023-04-27T12:00:25.000Z,298
2023-04-27T12:01:42.000Z,298
2023-04-27T12:02:58.000Z,303
2023-04-27T12:04:14.000Z,303
2023-04-27T12:05:29.000Z,298
2023-04-27T12:06:46.000Z,315
2023-04-27T12:08:02.000Z,320
2023-04-27T12:09:18.000Z,309
2023-04-27T12:10:34.000Z,315
2023-04-27T12:11:51.000Z,331
2023-04-27T12:13:07.000Z,337
2023-04-27T12:14:23.530Z,331
2023-04-27T12:15:39.000Z,326
2023-04-27T12:16:56.000Z,320
2023-04-27T12:18:12.000Z,315
2023-04-27T12:19:28.000Z,320
2023-04-27T12:20:44.000Z,337
2023-04-27T12:22:00.000Z,354
2023-04-27T12:23:16.000Z,365
2023-04-27T12:24:32.472Z,371
2023-04-27T12:25:48.000Z,371
2023-04-27T12:27:04.000Z,382
2023-04-27T12:28:21.000Z,405
2023-04-27T12:29:37.000Z,405
2023-04-27T12:30:53.000Z,405
2023-04-27T12:32:09.000Z,405
2023-04-27T12:33:26.000Z,427
2023-04-27T12:34:42.000Z,421
2023-04-27T12:35:58.000Z,416
2023-04-27T12:37:14.861Z,427
2023-04-27T12:38:30.000Z,393
2023-04-27T12:39:46.000Z,371
2023-04-27T12:41:02.000Z,365
2023-04-27T12:42:18.000Z,365
2023-04-27T12:43:35.000Z,365
2023-04-27T12:44:51.000Z,376
2023-04-27T12:46:07.000Z,382
2023-04-27T12:47:23.000Z,393
2023-04-27T12:48:40.000Z,416
2023-04-27T12:49:56.000Z,421
2023-04-27T12:51:12.000Z,421
2023-04-27T12:52:28.000Z,427
2023-04-27T12:53:45.000Z,427
2023-04-27T12:55:00.000Z,433
2023-04-27T12:56:16.000Z,444
2023-04-27T12:57:32.000Z,450
2023-04-27T12:58:48.000Z,466
2023-04-27T13:00:05.000Z,489
2023-04-27T13:01:21.000Z,506
2023-04-27T13:02:37.000Z,483
2023-04-27T13:03:53.000Z,466
2023-04-27T13:05:10.000Z,455
2023-04-27T13:06:26.000Z,450
2023-04-27T13:07:42.000Z,438
2023-04-27T13:08:58.000Z,427
2023-04-27T13:10:15.000Z,405
2023-04-27T13:11:30.000Z,393
2023-04-27T13:12:46.000Z,382
2023-04-27T13:14:02.000Z,376
2023-04-27T13:15:19.000Z,376
2023-04-27T13:16:35.000Z,382
2023-04-27T13:17:51.000Z,382
2023-04-27T13:19:06.000Z,382
2023-04-27T13:20:23.000Z,371
2023-04-27T13:21:39.000Z,365
2023-04-27T13:22:55.557Z,376
2023-04-27T13:24:11.000Z,393
2023-04-27T13:25:28.000Z,382
2023-04-27T13:26:44.000Z,410
2023-04-27T13:28:00.000Z,421
2023-04-27T13:29:16.000Z,438
2023-04-27T13:30:33.000Z,438
2023-04-27T13:31:49.000Z,399
2023-04-27T13:33:05.000Z,388
2023-04-27T13:34:21.000Z,399
2023-04-27T13:35:38.000Z,393
2023-04-27T13:36:54.000Z,382
2023-04-27T13:38:10.000Z,354
2023-04-27T13:39:26.000Z,365
2023-04-27T13:40:43.000Z,388
2023-04-27T13:41:59.000Z,399
2023-04-27T13:43:15.000Z,388
2023-04-27T13:44:31.000Z,388
2023-04-27T13:45:48.000Z,405
2023-04-27T13:47:04.000Z,416
2023-04-27T13:48:20.000Z,399
2023-04-27T13:49:36.000Z,410
2023-04-27T13:50:52.000Z,393
2023-04-27T13:52:08.200Z,388
2023-04-27T13:53:24.450Z,382
2023-04-27T13:54:40.000Z,376
2023-04-27T13:55:56.000Z,388
2023-04-27T13:57:13.000Z,427
2023-04-27T13:58:29.000Z,427
2023-04-27T13:59:45.000Z,393
2023-04-27T14:01:01.885Z,399
2023-04-27T14:02:18.000Z,427
2023-04-27T14:03:34.000Z,399
2023-04-27T14:04:50.000Z,382
2023-04-27T14:06:06.000Z,376
2023-04-27T14:07:23.000Z,410
2023-04-27T14:08:39.441Z,405
2023-04-27T14:09:55.000Z,433
2023-04-27T14:11:11.000Z,450
2023-04-27T14:12:28.000Z,450
2023-04-27T14:13:44.000Z,444
2023-04-27T14:15:00.000Z,433
2023-04-27T14:16:16.871Z,416
2023-04-27T14:17:33.000Z,399
2023-04-27T14:18:49.000Z,393
2023-04-27T14:20:05.000Z,382
2023-04-27T14:21:21.000Z,371
2023-04-27T14:22:38.000Z,388
2023-04-27T14:23:54.000Z,388
2023-04-27T14:25:09.000Z,405
2023-04-27T14:26:25.000Z,382
2023-04-27T14:27:42.000Z,433
2023-04-27T14:28:58.000Z,421
2023-04-27T14:30:14.000Z,399
2023-04-27T14:31:30.000Z,388
2023-04-27T14:32:47.000Z,388
2023-04-27T14:34:03.263Z,399
2023-04-27T14:35:19.000Z,388
2023-04-27T14:36:35.734Z,382
2023-04-27T14:37:51.000Z,360
2023-04-27T14:39:08.000Z,354
2023-04-27T14:40:24.454Z,365
2023-04-27T14:41:39.000Z,371
2023-04-27T14:42:55.000Z,371
2023-04-27T14:44:12.000Z,371
2023-04-27T14:45:28.000Z,365
2023-04-27T14:46:44.665Z,365
2023-04-27T14:48:00.000Z,382
2023-04-27T14:49:17.000Z,388
2023-04-27T14:50:33.000Z,382
2023-04-27T14:51:49.000Z,371
2023-04-27T14:53:05.000Z,360
2023-04-27T14:54:22.000Z,354
2023-04-27T14:55:38.000Z,348
2023-04-27T14:56:54.000Z,348
2023-04-27T14:58:09.860Z,343
2023-04-27T14:59:26.000Z,337
2023-04-27T15:00:42.000Z,343
2023-04-27T15:01:58.000Z,348
2023-04-27T15:03:14.000Z,376
2023-04-27T15:04:31.000Z,376
2023-04-27T15:05:47.000Z,393
2023-04-27T15:07:03.000Z,399
2023-04-27T15:08:19.000Z,399
2023-04-27T15:09:36.000Z,371
2023-04-27T15:10:52.000Z,405
2023-04-27T15:12:08.000Z,405
2023-04-27T15:13:24.000Z,393
2023-04-27T15:14:40.000Z,371
2023-04-27T15:15:56.000Z,382
2023-04-27T15:17:12.000Z,388
2023-04-27T15:18:28.000Z,405
2023-04-27T15:19:44.000Z,421
2023-04-27T15:21:01.000Z,416
2023-04-27T15:22:17.000Z,416
2023-04-27T15:23:33.000Z,427
2023-04-27T15:24:49.000Z,438
2023-04-27T15:26:06.000Z,438
2023-04-27T15:27:22.377Z,444
2023-04-27T15:28:38.000Z,438
2023-04-27T15:29:54.000Z,444
2023-04-27T15:31:10.000Z,438
2023-04-27T15:32:26.354Z,438
2023-04-27T15:33:42.000Z,450
2023-04-27T15:34:58.000Z,461
2023-04-27T15:36:15.000Z,472
2023-04-27T15:37:31.330Z,483
2023-04-27T15:38:47.000Z,483
2023-04-27T15:40:03.792Z,483
2023-04-27T15:41:20.000Z,466
2023-04-27T15:42:36.000Z,472
2023-04-27T15:43:52.000Z,461
2023-04-27T15:45:08.000Z,466
2023-04-27T15:46:25.000Z,466
2023-04-27T15:47:40.228Z,472
2023-04-27T15:48:56.000Z,483
2023-04-27T15:50:12.000Z,478
2023-04-27T15:51:28.000Z,483
2023-04-27T15:52:45.000Z,483
2023-04-27T15:54:01.000Z,489
2023-04-27T15:55:17.000Z,815
2023-04-27T15:56:33.000Z,1220
2023-04-27T15:57:50.000Z,1226
2023-04-27T15:59:06.000Z,1248
2023-04-27T16:00:22.000Z,1175
2023-04-27T16:01:38.000Z,1074
2023-04-27T16:02:55.094Z,427
2023-04-27T16:04:10.372Z,585
2023-04-27T16:05:26.610Z,410
2023-04-27T16:06:42.000Z,652
2023-04-27T16:07:59.000Z,360
2023-04-27T16:09:15.000Z,348
2023-04-27T16:10:31.000Z,343
2023-04-27T16:11:47.000Z,371
2023-04-27T16:13:04.046Z,421
2023-04-27T16:14:20.000Z,517
2023-04-27T16:15:36.000Z,1108
2023-04-27T16:16:52.000Z,916
2023-04-27T16:18:09.012Z,489
2023-04-27T16:19:25.000Z,652
2023-04-27T16:20:40.000Z,618
2023-04-27T16:21:56.000Z,630
2023-04-27T16:23:12.977Z,961
2023-04-27T16:24:29.000Z,950
2023-04-27T16:25:45.000Z,877
2023-04-27T16:27:01.000Z,517
2023-04-27T16:28:17.000Z,624
2023-04-27T16:29:34.000Z,511
2023-04-27T16:30:50.000Z,421
2023-04-27T16:32:06.000Z,405
2023-04-27T16:33:22.895Z,556
2023-04-27T16:34:39.000Z,433
2023-04-27T16:35:55.000Z,388
2023-04-27T16:37:10.000Z,376
2023-04-27T16:38:26.000Z,382
2023-04-27T16:39:43.000Z,433
2023-04-27T16:40:59.000Z,393
2023-04-27T16:42:15.000Z,399
2023-04-27T16:43:31.000Z,691
2023-04-27T16:44:48.000Z,832
2023-04-27T16:46:04.303Z,939
2023-04-27T16:47:20.000Z,1001
2023-04-27T16:48:36.000Z,945
2023-04-27T16:49:53.000Z,916
2023-04-27T16:51:09.269Z,821
2023-04-27T16:52:25.000Z,939
2023-04-27T16:53:40.000Z,731
2023-04-27T16:54:57.000Z,450
2023-04-27T16:56:13.000Z,450
2023-04-27T16:57:29.000Z,658
2023-04-27T16:58:45.000Z,472
2023-04-27T17:00:01.000Z,500
2023-04-27T17:01:18.000Z,663
2023-04-27T17:02:34.000Z,562
2023-04-27T17:03:50.000Z,320
2023-04-27T17:05:06.000Z,371
2023-04-27T17:06:23.000Z,303
2023-04-27T17:07:39.000Z,292
2023-04-27T17:08:55.000Z,298
2023-04-27T17:10:10.000Z,281
2023-04-27T17:11:27.000Z,264
2023-04-27T17:12:43.000Z,258
2023-04-27T17:13:59.000Z,258
2023-04-27T17:15:15.000Z,253
2023-04-27T17:16:32.079Z,247
2023-04-27T17:17:48.000Z,241
2023-04-27T17:19:04.531Z,225
2023-04-27T17:20:20.000Z,208
2023-04-27T17:21:37.000Z,185
2023-04-27T17:22:53.000Z,151
2023-04-27T17:24:09.000Z,129
2023-04-27T17:25:25.000Z,112
2023-04-27T17:26:42.000Z,112
2023-04-27T17:27:58.000Z,118
2023-04-27T17:29:14.000Z,151
2023-04-27T17:30:30.000Z,146
2023-04-27T17:31:47.000Z,135
2023-04-27T17:33:03.000Z,112
2023-04-27T17:34:18.000Z,101
2023-04-27T17:35:34.000Z,90
2023-04-27T17:36:51.000Z,90
2023-04-27T17:38:07.000Z,78
2023-04-27T17:39:23.000Z,78
2023-04-27T17:40:39.000Z,78
2023-04-27T17:41:56.000Z,78
2023-04-27T17:43:12.000Z,78
2023-04-27T17:44:28.000Z,84
2023-04-27T17:45:44.000Z,90
2023-04-27T17:47:00.000Z,106